MSC Levina — 3FJR8 — position and weather

sailwx.info

Track history (hours):
 
Tides and Currents Weather Stations Pressure Air Temp Water Temp Dewpoint Dewpoint Depression Visibility Wind Speed Wind Dir Waves Ship Positions

MSC Levina

Last reported at 2016-May-26 21:20 UTC. Time now 2016-May-27 02:20 UTC.
Position N 01°15' E 103°32'.

Length 227.6 m; beam 32.2 m; draft 12.1 m.

Type: Cargo ship. MMSI: 355609000.

Date/timePositionNaut miles runAvg speedWind from/ knotsBaromVisibWave heightAir tempDewpointWater temp
2016-May-26 21:20N 01°15' E 103°32'0 0.0
2016-May-26 20:20N 01°15' E 103°32'0 0.0
2016-May-26 14:17N 01°15' E 103°32'0 0.0
2016-May-26 01:23N 01°15' E 103°32'0 0.4
2016-May-26 00:20N 01°14' E 103°32'4 5.8
2016-May-25 23:33N 01°12' E 103°36'7 6.6
2016-May-25 22:34N 01°14' E 103°42'4 3.9
2016-May-25 21:29N 01°16' E 103°46'0 0.1
2016-May-25 20:32N 01°16' E 103°46'0 0.0
2016-May-25 19:32N 01°16' E 103°46'0 0.0
2016-May-25 18:32N 01°16' E 103°46'0 0.0
2016-May-25 17:29N 01°16' E 103°46'0 0.0
2016-May-25 16:31N 01°16' E 103°46'0 0.0
2016-May-25 15:32N 01°16' E 103°46'0 0.0
2016-May-25 14:28N 01°16' E 103°46'0 0.0
2016-May-25 13:28N 01°16' E 103°46'0 0.0
2016-May-25 12:29N 01°16' E 103°46'0 0.0
2016-May-25 11:31N 01°16' E 103°46'0 0.0
2016-May-25 10:29N 01°16' E 103°46'0 0.0
2016-May-25 09:31N 01°16' E 103°46'0 0.0
2016-May-25 08:29N 01°16' E 103°46'0 0.0
2016-May-25 07:32N 01°16' E 103°46'0 0.0
2016-May-25 06:28N 01°16' E 103°46'0 0.0
2016-May-25 05:31N 01°16' E 103°46'0 0.0
2016-May-25 04:31N 01°16' E 103°46'1 1.5
2016-May-25 03:33N 01°15' E 103°45'9 9.3
2016-May-25 02:34N 01°13' E 103°36'8 7.9
2016-May-25 01:32N 01°10' E 103°29'5711.1
2016-May-24 20:23N 01°41' E 102°41'10 9.1
2016-May-24 19:16N 01°46' E 102°32'7 9.3
2016-May-24 18:33N 01°48' E 102°26'10 9.6
2016-May-24 17:33N 01°53' E 102°17'236 5.1
2016-May-22 19:29N 05°04' E 099°58'1412.3
2016-May-22 18:21N 05°17' E 100°01'1112.4
2016-May-22 17:28N 05°28' E 100°04'1011.4
2016-May-22 16:33N 05°35' E 100°12'1312.6
2016-May-22 15:33N 05°27' E 100°21'1 0.9
2016-May-22 14:14N 05°25' E 100°22'0 0.0
2016-May-22 12:26N 05°26' E 100°22'0 0.0
2016-May-22 11:32N 05°26' E 100°22'0 0.0
2016-May-22 09:20N 05°26' E 100°22'0 0.0
2016-May-22 06:20N 05°26' E 100°22'0 0.0
2016-May-22 03:26N 05°26' E 100°22'0 0.0
2016-May-22 02:32N 05°26' E 100°22'0 0.0
2016-May-22 01:32N 05°26' E 100°22'0 0.0
2016-May-22 00:32N 05°26' E 100°22'0 0.0
2016-May-21 23:33N 05°26' E 100°22'9 9.5
2016-May-21 22:33N 05°33' E 100°16'5 0.9
2016-May-21 16:28N 05°35' E 100°11'0 0.0
2016-May-21 15:28N 05°35' E 100°11'242 8.0
2016-May-20 09:05N 02°03' E 102°08'1119.8
2016-May-20 08:32N 01°56' E 102°17'1515.2
2016-May-20 07:32N 01°50' E 102°31'1612.3
2016-May-20 06:13N 01°43' E 102°45'5510.9
2016-May-20 01:09N 01°14' E 103°32'611.1
2016-May-20 00:34N 01°20' E 103°33'4 0.3
2016-May-19 11:06N 01°17' E 103°33'1 1.9
2016-May-19 10:26N 01°16' E 103°34'0 0.5
2016-May-19 09:33N 01°16' E 103°34'0 0.0
2016-May-19 08:33N 01°16' E 103°34'1 0.7
2016-May-19 07:32N 01°16' E 103°34'5 4.9
2016-May-19 06:33N 01°12' E 103°37'1010.4
2016-May-19 05:34N 01°16' E 103°46'0 0.2
2016-May-19 04:29N 01°16' E 103°46'0 0.0
2016-May-19 03:29N 01°16' E 103°46'0 0.0
2016-May-19 02:29N 01°16' E 103°46'0 0.0
2016-May-19 01:32N 01°16' E 103°46'0 0.0
2016-May-19 00:32N 01°16' E 103°46'0 0.0
2016-May-18 23:29N 01°16' E 103°46'0 0.1
2016-May-18 22:29N 01°16' E 103°46'0 0.1
2016-May-18 21:32N 01°16' E 103°46'0 0.0
2016-May-18 20:32N 01°16' E 103°46'0 0.0
2016-May-18 19:17N 01°16' E 103°46'0 0.0
2016-May-18 18:32N 01°16' E 103°46'0 0.0
2016-May-18 17:29N 01°16' E 103°46'0 0.0
2016-May-18 16:29N 01°16' E 103°46'0 0.0
2016-May-18 15:26N 01°16' E 103°46'0 0.0
2016-May-18 14:32N 01°16' E 103°46'0 0.0
2016-May-18 13:32N 01°16' E 103°46'0 0.0
2016-May-18 12:32N 01°16' E 103°46'0 0.0
2016-May-18 11:32N 01°16' E 103°46'4 3.8
2016-May-18 10:33N 01°14' E 103°43'8 7.9
2016-May-18 09:33N 01°12' E 103°35'8 8.2
2016-May-18 08:33N 01°10' E 103°27'48 9.5
2016-May-18 03:30N 01°38' E 102°48'2211.5
2016-May-18 01:33N 01°47' E 102°28'1413.7
2016-May-18 00:33N 01°53' E 102°16'  
Track history (hours):
 
Tides and Currents Weather Stations Pressure Air Temp Water Temp Dewpoint Dewpoint Depression Visibility Wind Speed Wind Dir Waves Ship Positions

MSC Levina

Last reported at 2016-May-26 21:20 UTC. Time now 2016-May-27 02:20 UTC.
Position N 01°15' E 103°32'.

Length 227.6 m; beam 32.2 m; draft 12.1 m.

Type: Cargo ship. MMSI: 355609000.

Date/timePositionNaut miles runAvg speedWind from/ knotsBaromVisibWave heightAir tempDewpointWater temp
2016-May-26 21:20N 01°15' E 103°32'0 0.0
2016-May-26 20:20N 01°15' E 103°32'0 0.0
2016-May-26 14:17N 01°15' E 103°32'0 0.0
2016-May-26 01:23N 01°15' E 103°32'0 0.4
2016-May-26 00:20N 01°14' E 103°32'4 5.8
2016-May-25 23:33N 01°12' E 103°36'7 6.6
2016-May-25 22:34N 01°14' E 103°42'4 3.9
2016-May-25 21:29N 01°16' E 103°46'0 0.1
2016-May-25 20:32N 01°16' E 103°46'0 0.0
2016-May-25 19:32N 01°16' E 103°46'0 0.0
2016-May-25 18:32N 01°16' E 103°46'0 0.0
2016-May-25 17:29N 01°16' E 103°46'0 0.0
2016-May-25 16:31N 01°16' E 103°46'0 0.0
2016-May-25 15:32N 01°16' E 103°46'0 0.0
2016-May-25 14:28N 01°16' E 103°46'0 0.0
2016-May-25 13:28N 01°16' E 103°46'0 0.0
2016-May-25 12:29N 01°16' E 103°46'0 0.0
2016-May-25 11:31N 01°16' E 103°46'0 0.0
2016-May-25 10:29N 01°16' E 103°46'0 0.0
2016-May-25 09:31N 01°16' E 103°46'0 0.0
2016-May-25 08:29N 01°16' E 103°46'0 0.0
2016-May-25 07:32N 01°16' E 103°46'0 0.0
2016-May-25 06:28N 01°16' E 103°46'0 0.0
2016-May-25 05:31N 01°16' E 103°46'0 0.0
2016-May-25 04:31N 01°16' E 103°46'1 1.5
2016-May-25 03:33N 01°15' E 103°45'9 9.3
2016-May-25 02:34N 01°13' E 103°36'8 7.9
2016-May-25 01:32N 01°10' E 103°29'5711.1
2016-May-24 20:23N 01°41' E 102°41'10 9.1
2016-May-24 19:16N 01°46' E 102°32'7 9.3
2016-May-24 18:33N 01°48' E 102°26'10 9.6
2016-May-24 17:33N 01°53' E 102°17'236 5.1
2016-May-22 19:29N 05°04' E 099°58'1412.3
2016-May-22 18:21N 05°17' E 100°01'1112.4
2016-May-22 17:28N 05°28' E 100°04'1011.4
2016-May-22 16:33N 05°35' E 100°12'1312.6
2016-May-22 15:33N 05°27' E 100°21'1 0.9
2016-May-22 14:14N 05°25' E 100°22'0 0.0
2016-May-22 12:26N 05°26' E 100°22'0 0.0
2016-May-22 11:32N 05°26' E 100°22'0 0.0
2016-May-22 09:20N 05°26' E 100°22'0 0.0
2016-May-22 06:20N 05°26' E 100°22'0 0.0
2016-May-22 03:26N 05°26' E 100°22'0 0.0
2016-May-22 02:32N 05°26' E 100°22'0 0.0
2016-May-22 01:32N 05°26' E 100°22'0 0.0
2016-May-22 00:32N 05°26' E 100°22'0 0.0
2016-May-21 23:33N 05°26' E 100°22'9 9.5
2016-May-21 22:33N 05°33' E 100°16'5 0.9
2016-May-21 16:28N 05°35' E 100°11'0 0.0
2016-May-21 15:28N 05°35' E 100°11'242 8.0
2016-May-20 09:05N 02°03' E 102°08'1119.8
2016-May-20 08:32N 01°56' E 102°17'1515.2
2016-May-20 07:32N 01°50' E 102°31'1612.3
2016-May-20 06:13N 01°43' E 102°45'5510.9
2016-May-20 01:09N 01°14' E 103°32'611.1
2016-May-20 00:34N 01°20' E 103°33'4 0.3
2016-May-19 11:06N 01°17' E 103°33'1 1.9
2016-May-19 10:26N 01°16' E 103°34'0 0.5
2016-May-19 09:33N 01°16' E 103°34'0 0.0
2016-May-19 08:33N 01°16' E 103°34'1 0.7
2016-May-19 07:32N 01°16' E 103°34'5 4.9
2016-May-19 06:33N 01°12' E 103°37'1010.4
2016-May-19 05:34N 01°16' E 103°46'0 0.2
2016-May-19 04:29N 01°16' E 103°46'0 0.0
2016-May-19 03:29N 01°16' E 103°46'0 0.0
2016-May-19 02:29N 01°16' E 103°46'0 0.0
2016-May-19 01:32N 01°16' E 103°46'0 0.0
2016-May-19 00:32N 01°16' E 103°46'0 0.0
2016-May-18 23:29N 01°16' E 103°46'0 0.1
2016-May-18 22:29N 01°16' E 103°46'0 0.1
2016-May-18 21:32N 01°16' E 103°46'0 0.0
2016-May-18 20:32N 01°16' E 103°46'0 0.0
2016-May-18 19:17N 01°16' E 103°46'0 0.0
2016-May-18 18:32N 01°16' E 103°46'0 0.0
2016-May-18 17:29N 01°16' E 103°46'0 0.0
2016-May-18 16:29N 01°16' E 103°46'0 0.0
2016-May-18 15:26N 01°16' E 103°46'0 0.0
2016-May-18 14:32N 01°16' E 103°46'0 0.0
2016-May-18 13:32N 01°16' E 103°46'0 0.0
2016-May-18 12:32N 01°16' E 103°46'0 0.0
2016-May-18 11:32N 01°16' E 103°46'4 3.8
2016-May-18 10:33N 01°14' E 103°43'8 7.9
2016-May-18 09:33N 01°12' E 103°35'8 8.2
2016-May-18 08:33N 01°10' E 103°27'48 9.5
2016-May-18 03:30N 01°38' E 102°48'2211.5
2016-May-18 01:33N 01°47' E 102°28'1413.7
2016-May-18 00:33N 01°53' E 102°16'  

Dump ship's entire track history